sensor_id;sensor_type;location;lat;lon;timestamp;pressure;altitude;pressure_sealevel;temperature;humidity
39729;BME280;25402;42.004;23.088;2022-07-11T00:02:26;97391.88;;;14.21;42.27
39729;BME280;25402;42.004;23.088;2022-07-11T00:04:53;97391.66;;;14.23;42.09
39729;BME280;25402;42.004;23.088;2022-07-11T00:07:19;97388.09;;;14.22;42.11
39729;BME280;25402;42.004;23.088;2022-07-11T00:09:46;97387.47;;;14.20;41.96
39729;BME280;25402;42.004;23.088;2022-07-11T00:12:13;97392.94;;;14.14;41.78
39729;BME280;25402;42.004;23.088;2022-07-11T00:14:40;97393.78;;;14.14;41.76
39729;BME280;25402;42.004;23.088;2022-07-11T00:17:07;97398.38;;;14.14;41.75
39729;BME280;25402;42.004;23.088;2022-07-11T00:19:35;97405.28;;;14.16;41.91
39729;BME280;25402;42.004;23.088;2022-07-11T00:22:03;97396.28;;;14.16;41.97
39729;BME280;25402;42.004;23.088;2022-07-11T00:24:29;97403.38;;;14.17;42.05
39729;BME280;25402;42.004;23.088;2022-07-11T00:26:56;97410.94;;;14.15;42.33
39729;BME280;25402;42.004;23.088;2022-07-11T00:29:22;97408.00;;;14.10;41.78
39729;BME280;25402;42.004;23.088;2022-07-11T00:31:49;97417.22;;;14.09;41.75
39729;BME280;25402;42.004;23.088;2022-07-11T00:34:16;97395.06;;;13.92;41.81
39729;BME280;25402;42.004;23.088;2022-07-11T00:36:43;97417.22;;;14.02;42.24
39729;BME280;25402;42.004;23.088;2022-07-11T00:39:10;97419.94;;;13.96;42.47
39729;BME280;25402;42.004;23.088;2022-07-11T00:41:36;97427.69;;;13.92;42.32
39729;BME280;25402;42.004;23.088;2022-07-11T00:44:03;97428.50;;;13.86;42.41
39729;BME280;25402;42.004;23.088;2022-07-11T00:46:30;97439.00;;;13.82;42.77
39729;BME280;25402;42.004;23.088;2022-07-11T00:48:57;97440.25;;;13.73;43.19
39729;BME280;25402;42.004;23.088;2022-07-11T00:51:23;97443.59;;;13.62;43.60
39729;BME280;25402;42.004;23.088;2022-07-11T00:53:52;97432.72;;;13.62;43.60
39729;BME280;25402;42.004;23.088;2022-07-11T00:56:21;97425.81;;;13.60;43.78
39729;BME280;25402;42.004;23.088;2022-07-11T00:58:48;97428.94;;;13.50;44.04
39729;BME280;25402;42.004;23.088;2022-07-11T01:01:15;97422.63;;;13.43;43.13
39729;BME280;25402;42.004;23.088;2022-07-11T01:03:42;97424.28;;;13.31;42.69
39729;BME280;25402;42.004;23.088;2022-07-11T01:06:09;97425.94;;;13.18;42.94
39729;BME280;25402;42.004;23.088;2022-07-11T01:08:37;97428.81;;;13.10;42.99
39729;BME280;25402;42.004;23.088;2022-07-11T01:11:05;97431.28;;;12.92;43.39
39729;BME280;25402;42.004;23.088;2022-07-11T01:13:35;97427.75;;;12.98;43.29
39729;BME280;25402;42.004;23.088;2022-07-11T01:16:10;97437.34;;;12.94;43.44
39729;BME280;25402;42.004;23.088;2022-07-11T01:18:36;97440.28;;;12.99;44.31
39729;BME280;25402;42.004;23.088;2022-07-11T01:21:07;97441.53;;;12.97;44.52
39729;BME280;25402;42.004;23.088;2022-07-11T01:23:36;97442.78;;;12.94;44.73
39729;BME280;25402;42.004;23.088;2022-07-11T01:26:03;97447.16;;;12.95;44.85
39729;BME280;25402;42.004;23.088;2022-07-11T01:28:29;97423.56;;;12.89;44.86
39729;BME280;25402;42.004;23.088;2022-07-11T01:30:56;97446.34;;;13.01;44.82
39729;BME280;25402;42.004;23.088;2022-07-11T01:33:22;97440.09;;;13.01;44.76
39729;BME280;25402;42.004;23.088;2022-07-11T01:35:49;97437.97;;;12.90;44.24
39729;BME280;25402;42.004;23.088;2022-07-11T01:38:16;97437.53;;;12.86;44.54
39729;BME280;25402;42.004;23.088;2022-07-11T01:40:43;97439.63;;;12.84;44.65
39729;BME280;25402;42.004;23.088;2022-07-11T01:43:09;97447.34;;;12.87;44.74
39729;BME280;25402;42.004;23.088;2022-07-11T01:45:36;97456.34;;;12.88;44.75
39729;BME280;25402;42.004;23.088;2022-07-11T01:48:02;97450.50;;;12.91;44.76
39729;BME280;25402;42.004;23.088;2022-07-11T01:50:29;97464.69;;;12.93;44.79
39729;BME280;25402;42.004;23.088;2022-07-11T01:52:55;97460.09;;;12.93;44.56
39729;BME280;25402;42.004;23.088;2022-07-11T01:55:22;97457.59;;;12.92;44.77
39729;BME280;25402;42.004;23.088;2022-07-11T01:57:49;97465.13;;;12.90;44.81
39729;BME280;25402;42.004;23.088;2022-07-11T02:00:16;97463.84;;;12.85;44.76
39729;BME280;25402;42.004;23.088;2022-07-11T02:02:42;97462.56;;;12.81;44.88
39729;BME280;25402;42.004;23.088;2022-07-11T02:05:09;97457.13;;;12.75;45.14
39729;BME280;25402;42.004;23.088;2022-07-11T02:07:35;97454.81;;;12.72;45.00
39729;BME280;25402;42.004;23.088;2022-07-11T02:10:19;97468.31;;;12.65;45.05
39729;BME280;25402;42.004;23.088;2022-07-11T02:12:46;97458.28;;;12.66;45.48
39729;BME280;25402;42.004;23.088;2022-07-11T02:15:13;97456.59;;;12.58;45.37
39729;BME280;25402;42.004;23.088;2022-07-11T02:17:39;97472.88;;;12.58;45.71
39729;BME280;25402;42.004;23.088;2022-07-11T02:20:07;97477.47;;;12.58;45.61
39729;BME280;25402;42.004;23.088;2022-07-11T02:22:34;97482.25;;;12.56;45.43
39729;BME280;25402;42.004;23.088;2022-07-11T02:25:00;97481.63;;;12.54;45.71
39729;BME280;25402;42.004;23.088;2022-07-11T02:27:27;97486.59;;;12.50;45.93
39729;BME280;25402;42.004;23.088;2022-07-11T02:29:53;97485.13;;;12.47;45.60
39729;BME280;25402;42.004;23.088;2022-07-11T02:32:20;97488.66;;;12.41;46.01
39729;BME280;25402;42.004;23.088;2022-07-11T02:34:47;97484.38;;;12.32;46.27
39729;BME280;25402;42.004;23.088;2022-07-11T02:37:13;97487.94;;;12.33;46.36
39729;BME280;25402;42.004;23.088;2022-07-11T02:39:40;97479.81;;;12.33;46.59
39729;BME280;25402;42.004;23.088;2022-07-11T02:42:06;97478.97;;;12.32;46.74
39729;BME280;25402;42.004;23.088;2022-07-11T02:44:33;97481.69;;;12.32;46.82
39729;BME280;25402;42.004;23.088;2022-07-11T02:46:59;97486.06;;;12.33;46.83
39729;BME280;25402;42.004;23.088;2022-07-11T02:49:26;97506.09;;;12.32;46.50
39729;BME280;25402;42.004;23.088;2022-07-11T02:51:53;97507.94;;;12.25;46.09
39729;BME280;25402;42.004;23.088;2022-07-11T02:54:20;97517.69;;;12.20;46.04
39729;BME280;25402;42.004;23.088;2022-07-11T02:56:46;97517.69;;;12.20;46.16
39729;BME280;25402;42.004;23.088;2022-07-11T02:59:13;97519.94;;;12.16;46.09
39729;BME280;25402;42.004;23.088;2022-07-11T03:01:39;97520.34;;;12.13;46.41
39729;BME280;25402;42.004;23.088;2022-07-11T03:04:07;97520.34;;;12.13;46.55
39729;BME280;25402;42.004;23.088;2022-07-11T03:06:34;97525.16;;;12.11;46.40
39729;BME280;25402;42.004;23.088;2022-07-11T03:09:01;97530.34;;;12.12;46.66
39729;BME280;25402;42.004;23.088;2022-07-11T03:11:28;97502.44;;;11.91;46.49
39729;BME280;25402;42.004;23.088;2022-07-11T03:13:54;97542.25;;;12.11;46.84
39729;BME280;25402;42.004;23.088;2022-07-11T03:16:20;97543.72;;;12.14;46.58
39729;BME280;25402;42.004;23.088;2022-07-11T03:18:47;97539.31;;;12.13;46.28
39729;BME280;25402;42.004;23.088;2022-07-11T03:21:14;97541.00;;;12.14;46.27
39729;BME280;25402;42.004;23.088;2022-07-11T03:23:41;97540.59;;;12.17;45.87
39729;BME280;25402;42.004;23.088;2022-07-11T03:26:07;97544.81;;;12.20;45.96
39729;BME280;25402;42.004;23.088;2022-07-11T03:28:34;97544.44;;;12.23;46.36
39729;BME280;25402;42.004;23.088;2022-07-11T03:31:03;97361.47;;;11.14;45.90
39729;BME280;25402;42.004;23.088;2022-07-11T03:33:50;97412.63;;;11.51;45.96
39729;BME280;25402;42.004;23.088;2022-07-11T03:36:42;97406.19;;;11.52;46.04
39729;BME280;25402;42.004;23.088;2022-07-11T03:39:26;97541.59;;;12.37;46.02
39729;BME280;25402;42.004;23.088;2022-07-11T03:42:24;97449.53;;;11.95;46.13
39729;BME280;25402;42.004;23.088;2022-07-11T03:45:35;97437.94;;;12.14;45.48
39729;BME280;25402;42.004;23.088;2022-07-11T03:48:22;97433.31;;;12.77;44.64
39729;BME280;25402;42.004;23.088;2022-07-11T04:01:22;97453.78;;;16.73;37.68
39729;BME280;25402;42.004;23.088;2022-07-11T04:04:21;97543.91;;;18.24;35.88
39729;BME280;25402;42.004;23.088;2022-07-11T04:07:32;97442.00;;;18.45;34.16
39729;BME280;25402;42.004;23.088;2022-07-11T04:10:32;97433.81;;;19.08;32.29
39729;BME280;25402;42.004;23.088;2022-07-11T04:13:19;97498.66;;;20.17;31.53
39729;BME280;25402;42.004;23.088;2022-07-11T04:16:16;97566.63;;;21.27;29.95
39729;BME280;25402;42.004;23.088;2022-07-11T04:19:02;97517.38;;;21.25;29.10
39729;BME280;25402;42.004;23.088;2022-07-11T04:22:00;97507.50;;;21.73;28.69
39729;BME280;25402;42.004;23.088;2022-07-11T04:25:15;97564.44;;;22.75;27.38
39729;BME280;25402;42.004;23.088;2022-07-11T04:28:01;97511.13;;;23.06;26.62
39729;BME280;25402;42.004;23.088;2022-07-11T04:30:41;97453.03;;;23.28;26.55
39729;BME280;25402;42.004;23.088;2022-07-11T04:34:15;97546.13;;;24.51;25.60
39729;BME280;25402;42.004;23.088;2022-07-11T04:37:08;97577.63;;;25.11;25.33
39729;BME280;25402;42.004;23.088;2022-07-11T04:40:03;97488.31;;;24.85;25.08
39729;BME280;25402;42.004;23.088;2022-07-11T04:42:52;97504.81;;;25.20;24.84
39729;BME280;25402;42.004;23.088;2022-07-11T04:45:45;97543.09;;;25.83;24.40
39729;BME280;25402;42.004;23.088;2022-07-11T04:48:24;97587.09;;;26.44;23.80
39729;BME280;25402;42.004;23.088;2022-07-11T04:51:18;97583.38;;;26.92;22.97
39729;BME280;25402;42.004;23.088;2022-07-11T04:54:00;97587.50;;;27.24;22.49
39729;BME280;25402;42.004;23.088;2022-07-11T04:56:32;97562.50;;;27.29;22.67
39729;BME280;25402;42.004;23.088;2022-07-11T04:59:07;97588.34;;;27.77;21.56
39729;BME280;25402;42.004;23.088;2022-07-11T05:01:54;97560.66;;;27.91;21.38
39729;BME280;25402;42.004;23.088;2022-07-11T05:04:42;97602.97;;;28.30;21.82
39729;BME280;25402;42.004;23.088;2022-07-11T05:20:48;97589.97;;;29.42;19.87
39729;BME280;25402;42.004;23.088;2022-07-11T05:24:07;97579.66;;;29.42;19.73
39729;BME280;25402;42.004;23.088;2022-07-11T05:30:59;97583.94;;;29.21;19.91
39729;BME280;25402;42.004;23.088;2022-07-11T05:34:22;97597.81;;;29.07;20.20
39729;BME280;25402;42.004;23.088;2022-07-11T05:47:16;97591.66;;;29.11;19.09
39729;BME280;25402;42.004;23.088;2022-07-11T05:49:59;97585.63;;;29.03;19.55
39729;BME280;25402;42.004;23.088;2022-07-11T05:52:54;97554.13;;;28.76;19.89
39729;BME280;25402;42.004;23.088;2022-07-11T05:55:32;97587.69;;;28.98;19.46
39729;BME280;25402;42.004;23.088;2022-07-11T05:58:40;97582.41;;;29.29;19.57
39729;BME280;25402;42.004;23.088;2022-07-11T06:01:47;97584.34;;;29.15;19.60
39729;BME280;25402;42.004;23.088;2022-07-11T06:37:49;97586.16;;;23.45;24.47
39729;BME280;25402;42.004;23.088;2022-07-11T06:40:53;97522.81;;;23.18;24.50
39729;BME280;25402;42.004;23.088;2022-07-11T06:44:02;97588.41;;;23.53;24.95
39729;BME280;25402;42.004;23.088;2022-07-11T06:47:09;97551.31;;;23.29;24.47
39729;BME280;25402;42.004;23.088;2022-07-11T06:50:03;97544.16;;;23.38;24.48
39729;BME280;25402;42.004;23.088;2022-07-11T07:29:42;97534.81;;;23.02;23.59
39729;BME280;25402;42.004;23.088;2022-07-11T07:39:16;97552.47;;;23.01;23.17
39729;BME280;25402;42.004;23.088;2022-07-11T07:42:34;97513.94;;;22.69;24.30
39729;BME280;25402;42.004;23.088;2022-07-11T09:15:13;97513.19;;;23.26;19.94
39729;BME280;25402;42.004;23.088;2022-07-11T09:21:58;97497.16;;;24.16;19.61
39729;BME280;25402;42.004;23.088;2022-07-11T09:24:58;97430.56;;;23.97;19.81
39729;BME280;25402;42.004;23.088;2022-07-11T09:38:22;97507.59;;;23.78;19.47
39729;BME280;25402;42.004;23.088;2022-07-11T09:41:20;97390.78;;;22.90;19.69
39729;BME280;25402;42.004;23.088;2022-07-11T09:44:39;97393.59;;;22.11;20.05
39729;BME280;25402;42.004;23.088;2022-07-11T11:52:06;97451.59;;;25.39;16.89
39729;BME280;25402;42.004;23.088;2022-07-11T11:54:32;97440.59;;;25.73;17.07
39729;BME280;25402;42.004;23.088;2022-07-11T11:57:05;97452.47;;;26.22;16.79
39729;BME280;25402;42.004;23.088;2022-07-11T11:59:32;97447.47;;;25.85;16.64
39729;BME280;25402;42.004;23.088;2022-07-11T12:01:59;97429.63;;;26.02;16.38
39729;BME280;25402;42.004;23.088;2022-07-11T12:04:30;97448.19;;;26.01;16.20
39729;BME280;25402;42.004;23.088;2022-07-11T12:06:58;97445.06;;;25.69;16.65
39729;BME280;25402;42.004;23.088;2022-07-11T12:09:25;97435.81;;;25.39;17.56
39729;BME280;25402;42.004;23.088;2022-07-11T12:12:06;97424.19;;;25.42;17.58
39729;BME280;25402;42.004;23.088;2022-07-11T12:14:51;97455.53;;;25.22;17.17
39729;BME280;25402;42.004;23.088;2022-07-11T12:17:23;97435.31;;;25.22;17.40
39729;BME280;25402;42.004;23.088;2022-07-11T12:19:50;97438.97;;;25.67;16.88
39729;BME280;25402;42.004;23.088;2022-07-11T12:22:16;97445.59;;;25.26;16.89
39729;BME280;25402;42.004;23.088;2022-07-11T12:24:47;97421.47;;;25.76;17.10
39729;BME280;25402;42.004;23.088;2022-07-11T12:27:17;97432.84;;;25.80;17.29
39729;BME280;25402;42.004;23.088;2022-07-11T12:29:44;97426.75;;;25.78;17.50
39729;BME280;25402;42.004;23.088;2022-07-11T12:32:15;97435.63;;;25.80;17.45
39729;BME280;25402;42.004;23.088;2022-07-11T12:34:44;97417.97;;;25.66;17.24
39729;BME280;25402;42.004;23.088;2022-07-11T12:37:12;97424.53;;;25.80;17.37
39729;BME280;25402;42.004;23.088;2022-07-11T12:39:45;97430.81;;;25.90;16.85
39729;BME280;25402;42.004;23.088;2022-07-11T12:42:23;97414.16;;;25.95;16.92
39729;BME280;25402;42.004;23.088;2022-07-11T12:45:00;97416.94;;;25.95;16.90
39729;BME280;25402;42.004;23.088;2022-07-11T12:47:34;97425.06;;;25.82;17.24
39729;BME280;25402;42.004;23.088;2022-07-11T12:50:10;97407.66;;;25.71;16.85
39729;BME280;25402;42.004;23.088;2022-07-11T12:52:38;97446.25;;;25.57;17.50
39729;BME280;25402;42.004;23.088;2022-07-11T12:55:06;97425.16;;;25.07;18.25
39729;BME280;25402;42.004;23.088;2022-07-11T12:57:34;97412.63;;;25.25;17.94
39729;BME280;25402;42.004;23.088;2022-07-11T13:00:11;97437.88;;;25.13;17.65
39729;BME280;25402;42.004;23.088;2022-07-11T13:02:41;97399.09;;;25.18;17.84
39729;BME280;25402;42.004;23.088;2022-07-11T13:05:07;97408.41;;;25.43;17.77
39729;BME280;25402;42.004;23.088;2022-07-11T13:07:34;97413.72;;;25.24;18.06
39729;BME280;25402;42.004;23.088;2022-07-11T13:10:19;97406.59;;;25.13;17.42
39729;BME280;25402;42.004;23.088;2022-07-11T13:12:48;97391.88;;;25.27;17.54
39729;BME280;25402;42.004;23.088;2022-07-11T13:15:15;97407.84;;;24.66;17.68
39729;BME280;25402;42.004;23.088;2022-07-11T13:17:44;97417.25;;;24.75;18.06
39729;BME280;25402;42.004;23.088;2022-07-11T13:20:12;97418.34;;;24.69;18.02
39729;BME280;25402;42.004;23.088;2022-07-11T13:22:39;97421.72;;;24.31;18.30
39729;BME280;25402;42.004;23.088;2022-07-11T13:25:06;97414.47;;;24.75;18.40
39729;BME280;25402;42.004;23.088;2022-07-11T13:27:33;97399.75;;;24.90;17.86
39729;BME280;25402;42.004;23.088;2022-07-11T13:30:01;97432.41;;;24.73;18.33
39729;BME280;25402;42.004;23.088;2022-07-11T13:32:35;97391.81;;;24.63;18.33
39729;BME280;25402;42.004;23.088;2022-07-11T13:35:02;97396.84;;;24.36;18.69
39729;BME280;25402;42.004;23.088;2022-07-11T13:37:30;97414.25;;;24.26;18.81
39729;BME280;25402;42.004;23.088;2022-07-11T13:39:57;97406.50;;;24.18;19.22
39729;BME280;25402;42.004;23.088;2022-07-11T13:42:23;97411.78;;;24.24;18.53
39729;BME280;25402;42.004;23.088;2022-07-11T13:44:50;97402.06;;;24.42;18.60
39729;BME280;25402;42.004;23.088;2022-07-11T13:47:23;97432.50;;;24.17;18.73
39729;BME280;25402;42.004;23.088;2022-07-11T13:49:49;97397.38;;;24.53;18.24
39729;BME280;25402;42.004;23.088;2022-07-11T13:52:16;97404.84;;;24.42;18.10
39729;BME280;25402;42.004;23.088;2022-07-11T13:54:42;97390.50;;;24.25;18.72
39729;BME280;25402;42.004;23.088;2022-07-11T13:57:09;97416.19;;;23.85;18.65
39729;BME280;25402;42.004;23.088;2022-07-11T13:59:35;97394.63;;;24.02;19.09
39729;BME280;25402;42.004;23.088;2022-07-11T14:02:03;97366.72;;;23.68;18.93
39729;BME280;25402;42.004;23.088;2022-07-11T14:04:31;97401.25;;;23.71;19.22
39729;BME280;25402;42.004;23.088;2022-07-11T14:06:58;97376.38;;;24.11;18.77
39729;BME280;25402;42.004;23.088;2022-07-11T14:09:25;97402.38;;;24.25;18.68
39729;BME280;25402;42.004;23.088;2022-07-11T14:11:51;97392.97;;;24.16;18.69
39729;BME280;25402;42.004;23.088;2022-07-11T14:14:20;97398.50;;;24.21;18.63
39729;BME280;25402;42.004;23.088;2022-07-11T14:16:47;97394.63;;;24.28;18.56
39729;BME280;25402;42.004;23.088;2022-07-11T14:19:13;97383.03;;;24.25;18.59
39729;BME280;25402;42.004;23.088;2022-07-11T14:21:41;97372.56;;;24.22;18.37
39729;BME280;25402;42.004;23.088;2022-07-11T14:24:07;97391.88;;;24.33;18.48
39729;BME280;25402;42.004;23.088;2022-07-11T14:26:34;97384.13;;;24.24;18.87
39729;BME280;25402;42.004;23.088;2022-07-11T14:29:02;97391.31;;;24.36;18.27
39729;BME280;25402;42.004;23.088;2022-07-11T14:31:28;97392.41;;;24.45;18.31
39729;BME280;25402;42.004;23.088;2022-07-11T14:33:55;97396.84;;;24.36;18.34
39729;BME280;25402;42.004;23.088;2022-07-11T14:36:22;97394.63;;;24.33;18.42
39729;BME280;25402;42.004;23.088;2022-07-11T14:38:51;97404.28;;;24.10;18.36
39729;BME280;25402;42.004;23.088;2022-07-11T14:41:18;97395.19;;;24.35;18.36
39729;BME280;25402;42.004;23.088;2022-07-11T14:43:45;97409.31;;;24.23;18.28
39729;BME280;25402;42.004;23.088;2022-07-11T14:46:14;97410.06;;;23.68;19.00
39729;BME280;25402;42.004;23.088;2022-07-11T14:48:41;97404.53;;;23.63;19.31
39729;BME280;25402;42.004;23.088;2022-07-11T14:51:08;97397.94;;;23.79;18.73
39729;BME280;25402;42.004;23.088;2022-07-11T14:53:35;97383.03;;;23.70;19.30
39729;BME280;25402;42.004;23.088;2022-07-11T14:56:03;97389.09;;;23.82;18.70
39729;BME280;25402;42.004;23.088;2022-07-11T14:58:29;97391.28;;;23.54;18.75
39729;BME280;25402;42.004;23.088;2022-07-11T15:00:56;97388.00;;;23.83;19.08
39729;BME280;25402;42.004;23.088;2022-07-11T15:03:22;97390.75;;;23.78;18.54
39729;BME280;25402;42.004;23.088;2022-07-11T15:06:04;97404.78;;;23.41;18.71
39729;BME280;25402;42.004;23.088;2022-07-11T15:08:31;97395.56;;;23.15;19.42
39729;BME280;25402;42.004;23.088;2022-07-11T15:11:16;97398.41;;;23.35;19.39
39729;BME280;25402;42.004;23.088;2022-07-11T15:14:01;97413.63;;;23.43;19.31
39729;BME280;25402;42.004;23.088;2022-07-11T15:16:28;97406.28;;;23.06;19.25
39729;BME280;25402;42.004;23.088;2022-07-11T15:18:55;97402.78;;;23.21;19.50
39729;BME280;25402;42.004;23.088;2022-07-11T15:21:22;97403.41;;;23.48;19.46
39729;BME280;25402;42.004;23.088;2022-07-11T15:23:48;97416.41;;;23.58;19.34
39729;BME280;25402;42.004;23.088;2022-07-11T15:26:15;97412.81;;;23.63;18.88
39729;BME280;25402;42.004;23.088;2022-07-11T15:28:43;97419.97;;;23.43;19.23
39729;BME280;25402;42.004;23.088;2022-07-11T15:31:09;97443.25;;;23.05;19.44
39729;BME280;25402;42.004;23.088;2022-07-11T15:33:38;97430.47;;;22.84;19.42
39729;BME280;25402;42.004;23.088;2022-07-11T15:36:04;97416.16;;;22.92;19.40
39729;BME280;25402;42.004;23.088;2022-07-11T15:38:31;97423.44;;;23.13;19.85
39729;BME280;25402;42.004;23.088;2022-07-11T15:40:57;97413.44;;;22.97;19.42
39729;BME280;25402;42.004;23.088;2022-07-11T15:43:24;97426.56;;;22.75;19.40
39729;BME280;25402;42.004;23.088;2022-07-11T15:45:51;97398.25;;;22.47;19.82
39729;BME280;25402;42.004;23.088;2022-07-11T15:48:18;97434.31;;;22.83;20.07
39729;BME280;25402;42.004;23.088;2022-07-11T15:50:45;97425.50;;;22.81;19.74
39729;BME280;25402;42.004;23.088;2022-07-11T15:53:11;97428.00;;;22.82;19.62
39729;BME280;25402;42.004;23.088;2022-07-11T15:55:39;97425.56;;;22.54;20.24
39729;BME280;25402;42.004;23.088;2022-07-11T15:58:06;97424.34;;;22.72;19.79
39729;BME280;25402;42.004;23.088;2022-07-11T16:00:32;97446.66;;;22.70;19.61
39729;BME280;25402;42.004;23.088;2022-07-11T16:03:00;97436.59;;;22.49;19.88
39729;BME280;25402;42.004;23.088;2022-07-11T16:05:27;97434.56;;;22.76;19.68
39729;BME280;25402;42.004;23.088;2022-07-11T16:07:54;97447.19;;;22.62;20.26
39729;BME280;25402;42.004;23.088;2022-07-11T16:10:21;97436.38;;;22.18;20.56
39729;BME280;25402;42.004;23.088;2022-07-11T16:12:47;97434.97;;;22.16;20.24
39729;BME280;25402;42.004;23.088;2022-07-11T16:15:14;97443.41;;;22.04;20.69
39729;BME280;25402;42.004;23.088;2022-07-11T16:17:40;97452.56;;;21.83;21.05
39729;BME280;25402;42.004;23.088;2022-07-11T16:20:09;97453.78;;;21.97;20.71
39729;BME280;25402;42.004;23.088;2022-07-11T16:22:37;97453.50;;;21.67;20.92
39729;BME280;25402;42.004;23.088;2022-07-11T16:25:06;97446.78;;;21.58;20.85
39729;BME280;25402;42.004;23.088;2022-07-11T16:27:33;97453.50;;;21.45;21.07
39729;BME280;25402;42.004;23.088;2022-07-11T16:30:00;97467.19;;;21.62;21.45
39729;BME280;25402;42.004;23.088;2022-07-11T16:32:27;97451.22;;;21.91;21.13
39729;BME280;25402;42.004;23.088;2022-07-11T16:34:53;97474.28;;;21.53;21.16
39729;BME280;25402;42.004;23.088;2022-07-11T16:37:21;97479.09;;;21.45;21.18
39729;BME280;25402;42.004;23.088;2022-07-11T16:39:47;97456.16;;;21.13;21.44
39729;BME280;25402;42.004;23.088;2022-07-11T16:42:31;97484.50;;;21.35;21.52
39729;BME280;25402;42.004;23.088;2022-07-11T16:45:15;97502.59;;;21.09;21.61
39729;BME280;25402;42.004;23.088;2022-07-11T16:47:41;97499.34;;;20.74;21.59
39729;BME280;25402;42.004;23.088;2022-07-11T16:50:08;97502.72;;;20.42;22.16
39729;BME280;25402;42.004;23.088;2022-07-11T16:52:36;97502.19;;;20.29;22.29
39729;BME280;25402;42.004;23.088;2022-07-11T16:55:03;97509.84;;;20.27;22.42
39729;BME280;25402;42.004;23.088;2022-07-11T16:57:29;97509.78;;;20.38;22.18
39729;BME280;25402;42.004;23.088;2022-07-11T16:59:56;97510.53;;;20.34;22.37
39729;BME280;25402;42.004;23.088;2022-07-11T17:02:24;97494.44;;;20.09;22.65
39729;BME280;25402;42.004;23.088;2022-07-11T17:04:51;97509.66;;;20.17;22.76
39729;BME280;25402;42.004;23.088;2022-07-11T17:07:17;97501.16;;;20.01;22.86
39729;BME280;25402;42.004;23.088;2022-07-11T17:09:45;97515.72;;;20.19;22.65
39729;BME280;25402;42.004;23.088;2022-07-11T17:12:12;97513.50;;;19.99;22.77
39729;BME280;25402;42.004;23.088;2022-07-11T17:14:38;97511.31;;;20.01;22.88
39729;BME280;25402;42.004;23.088;2022-07-11T17:17:04;97522.59;;;19.88;22.92
39729;BME280;25402;42.004;23.088;2022-07-11T17:19:31;97519.56;;;19.72;23.08
39729;BME280;25402;42.004;23.088;2022-07-11T17:21:59;97518.03;;;19.65;23.06
39729;BME280;25402;42.004;23.088;2022-07-11T17:24:26;97523.56;;;19.53;23.24
39729;BME280;25402;42.004;23.088;2022-07-11T17:26:53;97520.97;;;19.47;23.21
39729;BME280;25402;42.004;23.088;2022-07-11T17:29:19;97514.44;;;19.36;23.28
39729;BME280;25402;42.004;23.088;2022-07-11T17:31:46;97537.13;;;19.31;23.30
39729;BME280;25402;42.004;23.088;2022-07-11T17:34:13;97535.88;;;19.39;23.30
39729;BME280;25402;42.004;23.088;2022-07-11T17:36:40;97529.03;;;19.13;23.41
39729;BME280;25402;42.004;23.088;2022-07-11T17:39:07;97514.16;;;18.86;23.82
39729;BME280;25402;42.004;23.088;2022-07-11T17:41:33;97536.53;;;19.06;23.66
39729;BME280;25402;42.004;23.088;2022-07-11T17:44:01;97538.81;;;19.09;23.49
39729;BME280;25402;42.004;23.088;2022-07-11T17:46:27;97536.78;;;18.93;23.38
39729;BME280;25402;42.004;23.088;2022-07-11T17:48:53;97543.22;;;18.98;23.58
39729;BME280;25402;42.004;23.088;2022-07-11T17:51:20;97553.00;;;18.83;23.41
39729;BME280;25402;42.004;23.088;2022-07-11T17:53:46;97555.16;;;18.81;23.52
39729;BME280;25402;42.004;23.088;2022-07-11T17:56:14;97559.91;;;18.73;23.57
39729;BME280;25402;42.004;23.088;2022-07-11T17:58:40;97557.06;;;18.68;23.67
39729;BME280;25402;42.004;23.088;2022-07-11T18:01:07;97564.22;;;18.69;23.73
39729;BME280;25402;42.004;23.088;2022-07-11T18:03:34;97560.97;;;18.61;23.69
39729;BME280;25402;42.004;23.088;2022-07-11T18:06:00;97553.81;;;18.48;24.00
39729;BME280;25402;42.004;23.088;2022-07-11T18:08:27;97571.00;;;18.55;24.40
39729;BME280;25402;42.004;23.088;2022-07-11T18:10:54;97566.81;;;18.53;24.35
39729;BME280;25402;42.004;23.088;2022-07-11T18:13:21;97579.69;;;18.52;24.35
39729;BME280;25402;42.004;23.088;2022-07-11T18:15:48;97579.38;;;18.42;24.57
39729;BME280;25402;42.004;23.088;2022-07-11T18:18:15;97585.97;;;18.41;24.66
39729;BME280;25402;42.004;23.088;2022-07-11T18:20:41;97595.56;;;18.32;24.98
39729;BME280;25402;42.004;23.088;2022-07-11T18:23:08;97581.47;;;18.17;25.03
39729;BME280;25402;42.004;23.088;2022-07-11T18:25:34;97597.81;;;18.23;25.04
39729;BME280;25402;42.004;23.088;2022-07-11T18:28:01;97586.28;;;18.21;25.15
39729;BME280;25402;42.004;23.088;2022-07-11T18:30:27;97602.19;;;18.13;25.15
39729;BME280;25402;42.004;23.088;2022-07-11T18:32:53;97573.84;;;17.77;25.47
39729;BME280;25402;42.004;23.088;2022-07-11T18:35:21;97613.94;;;18.01;25.70
39729;BME280;25402;42.004;23.088;2022-07-11T18:37:47;97576.56;;;17.77;25.97
39729;BME280;25402;42.004;23.088;2022-07-11T18:40:14;97591.78;;;17.55;26.49
39729;BME280;25402;42.004;23.088;2022-07-11T18:42:58;97624.78;;;17.60;26.41
39729;BME280;25402;42.004;23.088;2022-07-11T18:45:25;97614.44;;;17.44;26.62
39729;BME280;25402;42.004;23.088;2022-07-11T18:47:51;97632.53;;;17.45;26.75
39729;BME280;25402;42.004;23.088;2022-07-11T18:50:17;97627.13;;;17.38;27.06
39729;BME280;25402;42.004;23.088;2022-07-11T18:52:45;97613.78;;;17.30;26.69
39729;BME280;25402;42.004;23.088;2022-07-11T18:55:13;97639.97;;;17.38;27.03
39729;BME280;25402;42.004;23.088;2022-07-11T18:57:39;97633.03;;;17.35;27.03
39729;BME280;25402;42.004;23.088;2022-07-11T19:00:08;97654.63;;;17.25;26.95
39729;BME280;25402;42.004;23.088;2022-07-11T19:02:36;97650.88;;;17.19;27.39